Time;durP1;ratioP1;P1;durP2;ratioP2;P2;SDS_P1;SDS_P2;PMS_P1;PMS_P2;Temp;Humidity;BMP_temperature;BMP_pressure;BME280_temperature;BME280_humidity;BME280_pressure;Samples;Min_cycle;Max_cycle;Signal;HPM_P1;HPM_P2
2024/02/14 00:00:13;;;;;;;;;;;;;;;5.02;87.97;100831.42;107527;1254;99182;-63
2024/02/14 00:03:03;;;;;;;;;;;;;;;4.99;88.05;100836.59;107608;1254;99071;-62
2024/02/14 00:05:31;;;;;;;;;;;;;;;4.95;87.82;100839.36;107601;1256;113571;-63
2024/02/14 00:08:00;;;;;;;;;;;;;;;4.90;87.88;100840.02;107563;1254;108043;-65
2024/02/14 00:10:28;;;;;;;;;;;;;;;4.89;87.84;100840.77;107494;1255;108141;-62
2024/02/14 00:12:56;;;;;;;;;;;;;;;4.90;87.82;100840.71;107590;1254;99185;-62
2024/02/14 00:15:25;;;;;;;;;;;;;;;4.90;87.95;100843.19;107591;1256;99200;-64
2024/02/14 00:17:54;;;;;;;;;;;;;;;4.89;88.01;100849.52;107582;1257;112304;-63
2024/02/14 00:20:24;;;;;;;;;;;;;;;4.86;87.75;100849.19;107572;1254;108509;-64
2024/02/14 00:22:53;;;;;;;;;;;;;;;4.83;87.85;100852.16;107525;1256;108205;-64
2024/02/14 00:25:21;;;;;;;;;;;;;;;4.85;88.06;100853.99;107544;1254;99165;-63
2024/02/14 00:27:49;;;;;;;;;;;;;;;4.79;87.42;100860.08;107591;1256;99188;-66
2024/02/14 00:30:18;;;;;;;;;;;;;;;4.73;87.57;100858.84;107588;1256;113130;-64
2024/02/14 00:32:46;;;;;;;;;;;;;;;4.71;87.49;100861.28;107569;1254;107945;-62
2024/02/14 00:35:14;;;;;;;;;;;;;;;4.70;87.42;100861.16;107589;1251;108312;-62
2024/02/14 00:37:43;;;;;;;;;;;;;;;4.66;87.55;100866.77;107609;1251;99206;-64
2024/02/14 00:40:12;;;;;;;;;;;;;;;4.63;87.46;100862.48;107539;1254;99076;-62
2024/02/14 00:42:40;;;;;;;;;;;;;;;4.61;87.64;100864.71;107612;1254;113459;-62
2024/02/14 00:45:09;;;;;;;;;;;;;;;4.60;87.59;100867.65;107618;1254;107979;-61
2024/02/14 00:47:37;;;;;;;;;;;;;;;4.58;87.63;100869.40;107545;1255;107817;-64
2024/02/14 00:50:07;;;;;;;;;;;;;;;4.56;87.29;100867.52;107615;1251;99185;-64
2024/02/14 00:52:35;;;;;;;;;;;;;;;4.57;87.36;100871.77;107578;1251;99073;-62
2024/02/14 00:55:03;;;;;;;;;;;;;;;4.57;87.34;100869.42;107580;1251;112234;-63
2024/02/14 00:57:31;;;;;;;;;;;;;;;4.55;87.32;100869.88;107597;1251;108017;-63
2024/02/14 01:00:01;;;;;;;;;;;;;;;4.58;87.34;100871.52;107601;1251;108476;-62
2024/02/14 01:02:30;;;;;;;;;;;;;;;4.59;87.34;100881.40;107566;1254;99246;-63
2024/02/14 01:04:58;;;;;;;;;;;;;;;4.59;87.15;100875.92;107542;1254;99065;-64
2024/02/14 01:07:27;;;;;;;;;;;;;;;4.56;87.11;100881.92;107586;1251;113979;-63
2024/02/14 01:09:55;;;;;;;;;;;;;;;4.54;86.96;100882.02;107521;1251;108546;-62
2024/02/14 01:12:24;;;;;;;;;;;;;;;4.56;87.17;100883.02;107593;1251;107943;-63
2024/02/14 01:14:52;;;;;;;;;;;;;;;4.56;87.06;100881.22;107564;1250;99223;-65
2024/02/14 01:17:20;;;;;;;;;;;;;;;4.52;86.99;100883.20;107596;1251;99220;-64
2024/02/14 01:19:48;;;;;;;;;;;;;;;4.53;87.14;100885.33;107534;1254;112550;-63
2024/02/14 01:22:17;;;;;;;;;;;;;;;4.52;87.08;100886.27;107517;1251;107905;-62
2024/02/14 01:24:45;;;;;;;;;;;;;;;4.52;86.98;100889.83;107558;1254;108157;-62
2024/02/14 01:27:13;;;;;;;;;;;;;;;4.48;86.96;100895.94;107583;1251;99191;-64
2024/02/14 01:29:42;;;;;;;;;;;;;;;4.49;87.36;100889.79;107612;1251;99204;-63
2024/02/14 01:32:10;;;;;;;;;;;;;;;4.48;87.13;100900.17;107438;1251;113544;-63
2024/02/14 01:34:38;;;;;;;;;;;;;;;4.41;87.14;100898.10;107538;1251;108726;-64
2024/02/14 01:37:08;;;;;;;;;;;;;;;4.38;87.28;100898.48;107452;1251;108209;-65
2024/02/14 01:39:36;;;;;;;;;;;;;;;4.35;87.54;100898.08;107469;1251;99191;-62
2024/02/14 01:42:06;;;;;;;;;;;;;;;4.35;87.44;100894.00;107529;1251;99138;-63
2024/02/14 01:44:36;;;;;;;;;;;;;;;4.33;87.56;100891.48;107522;1251;111670;-64
2024/02/14 01:47:06;;;;;;;;;;;;;;;4.32;87.73;100899.00;107516;1251;108159;-64
2024/02/14 01:49:34;;;;;;;;;;;;;;;4.26;87.72;100902.20;107495;1251;107781;-62
2024/02/14 01:52:03;;;;;;;;;;;;;;;4.20;87.90;100904.15;107508;1251;99188;-63
2024/02/14 01:54:33;;;;;;;;;;;;;;;4.17;88.33;100901.68;107496;1254;99135;-63
2024/02/14 01:57:01;;;;;;;;;;;;;;;4.19;88.59;100898.73;107616;1254;113024;-61
2024/02/14 01:59:30;;;;;;;;;;;;;;;4.21;88.36;100900.20;107482;1251;107200;-63
2024/02/14 02:01:59;;;;;;;;;;;;;;;4.20;88.31;100903.97;107465;1251;108206;-66
2024/02/14 02:04:27;;;;;;;;;;;;;;;4.18;88.27;100912.63;107502;1250;99279;-62
2024/02/14 02:06:56;;;;;;;;;;;;;;;4.15;87.93;100913.37;107522;1251;99200;-63
2024/02/14 02:09:25;;;;;;;;;;;;;;;4.14;88.11;100915.19;107508;1251;113538;-63
2024/02/14 02:11:56;;;;;;;;;;;;;;;4.09;88.09;100928.40;107545;1251;107868;-63
2024/02/14 02:14:26;;;;;;;;;;;;;;;4.05;88.02;100923.64;107577;1251;107984;-65
2024/02/14 02:16:54;;;;;;;;;;;;;;;4.05;88.34;100927.06;107431;1251;99192;-64
2024/02/14 02:19:22;;;;;;;;;;;;;;;4.07;88.27;100930.84;107590;1251;99227;-63
2024/02/14 02:21:52;;;;;;;;;;;;;;;4.05;88.35;100930.78;107463;1251;113233;-64
2024/02/14 02:24:20;;;;;;;;;;;;;;;4.04;88.27;100937.05;107496;1254;108632;-63
2024/02/14 02:26:48;;;;;;;;;;;;;;;4.01;88.25;100936.67;107540;1251;108779;-64
2024/02/14 02:29:19;;;;;;;;;;;;;;;4.01;88.09;100941.88;107528;1251;99170;-64
2024/02/14 02:31:48;;;;;;;;;;;;;;;4.02;88.32;100943.20;107519;1251;99309;-63
2024/02/14 02:34:16;;;;;;;;;;;;;;;4.03;88.28;100946.00;107531;1251;113358;-63
2024/02/14 02:36:45;;;;;;;;;;;;;;;4.01;88.20;100955.14;107525;1251;108455;-62
2024/02/14 02:39:14;;;;;;;;;;;;;;;3.99;88.14;100953.48;107473;1251;107596;-65
2024/02/14 02:41:45;;;;;;;;;;;;;;;4.00;88.25;100958.57;107489;1251;99157;-63
2024/02/14 02:44:13;;;;;;;;;;;;;;;3.99;88.30;100964.65;107420;1254;99373;-64
2024/02/14 02:46:43;;;;;;;;;;;;;;;3.98;88.27;100961.34;107557;1251;114085;-64
2024/02/14 02:49:13;;;;;;;;;;;;;;;3.98;88.20;100964.89;107460;1251;108440;-64
2024/02/14 02:51:42;;;;;;;;;;;;;;;3.98;88.10;100970.23;107573;1251;107796;-62
2024/02/14 02:54:11;;;;;;;;;;;;;;;3.98;88.14;100970.96;107509;1250;99179;-62
2024/02/14 02:56:40;;;;;;;;;;;;;;;3.97;88.21;100972.20;107471;1251;99067;-64
2024/02/14 02:59:09;;;;;;;;;;;;;;;3.95;88.32;100976.27;107545;1251;113704;-64
2024/02/14 03:01:37;;;;;;;;;;;;;;;3.97;88.13;100981.84;107575;1251;108302;-64
2024/02/14 03:04:08;;;;;;;;;;;;;;;3.97;88.21;100977.75;107537;1251;108100;-63
2024/02/14 03:06:36;;;;;;;;;;;;;;;4.00;88.17;100982.68;107490;1251;99244;-64
2024/02/14 03:09:05;;;;;;;;;;;;;;;4.01;88.04;100983.04;107516;1251;99064;-66
2024/02/14 03:11:35;;;;;;;;;;;;;;;3.98;87.94;100986.58;107501;1251;113274;-65
2024/02/14 03:14:04;;;;;;;;;;;;;;;3.96;87.98;100992.70;107425;1254;108581;-65
2024/02/14 03:16:32;;;;;;;;;;;;;;;3.93;87.94;100998.02;107597;1256;108613;-63
2024/02/14 03:19:00;;;;;;;;;;;;;;;3.93;88.28;100995.91;107512;1251;99487;-64
2024/02/14 03:21:30;;;;;;;;;;;;;;;3.94;88.50;100997.27;107548;1251;99287;-63
2024/02/14 03:23:59;;;;;;;;;;;;;;;3.94;88.43;101002.58;107513;1253;113274;-63
2024/02/14 03:26:27;;;;;;;;;;;;;;;3.91;88.41;101006.11;107600;1256;108346;-63
2024/02/14 03:28:55;;;;;;;;;;;;;;;3.93;88.43;101008.15;107553;1251;107720;-62
2024/02/14 03:31:25;;;;;;;;;;;;;;;3.94;88.57;101014.79;107446;1251;99179;-64
2024/02/14 03:33:53;;;;;;;;;;;;;;;3.94;88.62;101014.98;107518;1251;99253;-63
2024/02/14 03:36:24;;;;;;;;;;;;;;;3.94;88.60;101022.42;107559;1250;112658;-62
2024/02/14 03:38:52;;;;;;;;;;;;;;;3.96;88.81;101020.18;107607;1254;108813;-62
2024/02/14 03:41:20;;;;;;;;;;;;;;;3.96;88.53;101025.38;107489;1254;108265;-61
2024/02/14 03:43:50;;;;;;;;;;;;;;;3.93;88.48;101030.13;107549;1254;99212;-65
2024/02/14 03:46:21;;;;;;;;;;;;;;;3.91;88.19;101033.78;107627;1251;99028;-66
2024/02/14 03:48:49;;;;;;;;;;;;;;;3.94;88.69;101030.44;107637;1251;113145;-66
2024/02/14 03:51:19;;;;;;;;;;;;;;;3.94;88.78;101039.14;107614;1254;108427;-66
2024/02/14 03:53:47;;;;;;;;;;;;;;;3.93;88.72;101043.11;107593;1252;108524;-66
2024/02/14 03:56:16;;;;;;;;;;;;;;;3.87;88.24;101047.16;107606;1251;99058;-66
2024/02/14 03:58:44;;;;;;;;;;;;;;;3.85;88.63;101047.64;107574;1251;99192;-66
2024/02/14 04:01:15;;;;;;;;;;;;;;;3.87;88.68;101047.53;107601;1251;112839;-69
2024/02/14 04:03:45;;;;;;;;;;;;;;;3.84;88.45;101048.36;107600;1251;108538;-67
2024/02/14 04:06:14;;;;;;;;;;;;;;;3.85;88.58;101052.42;107571;1251;107795;-64
2024/02/14 04:08:42;;;;;;;;;;;;;;;3.85;88.56;101051.49;107513;1254;99178;-65
2024/02/14 04:11:13;;;;;;;;;;;;;;;3.86;88.52;101056.93;107552;1254;99181;-65
2024/02/14 04:13:41;;;;;;;;;;;;;;;3.84;88.31;101057.81;107569;1254;113186;-65
2024/02/14 04:16:09;;;;;;;;;;;;;;;3.79;88.47;101063.38;107616;1256;108877;-65
2024/02/14 04:18:37;;;;;;;;;;;;;;;3.76;88.51;101066.05;107604;1254;108644;-68
2024/02/14 04:21:08;;;;;;;;;;;;;;;3.74;88.59;101066.99;107610;1253;99199;-67
2024/02/14 04:23:36;;;;;;;;;;;;;;;3.72;88.63;101073.31;107600;1252;99160;-67
2024/02/14 04:26:04;;;;;;;;;;;;;;;3.69;88.56;101069.95;107616;1254;113074;-67
2024/02/14 04:28:32;;;;;;;;;;;;;;;3.70;88.95;101075.77;107607;1254;108321;-65
2024/02/14 04:31:01;;;;;;;;;;;;;;;3.72;89.12;101078.83;107543;1253;108213;-65
2024/02/14 04:33:30;;;;;;;;;;;;;;;3.72;88.89;101084.14;107583;1254;99287;-66
2024/02/14 04:35:58;;;;;;;;;;;;;;;3.71;89.18;101097.89;107577;1251;99065;-65
2024/02/14 04:38:29;;;;;;;;;;;;;;;3.71;89.02;101097.88;107576;1251;113617;-65
2024/02/14 04:40:58;;;;;;;;;;;;;;;3.70;88.95;101103.27;107513;1254;108085;-64
2024/02/14 04:43:27;;;;;;;;;;;;;;;3.68;88.74;101104.78;107567;1254;108575;-67
2024/02/14 04:45:55;;;;;;;;;;;;;;;3.64;88.83;101109.26;107558;1251;99189;-66
2024/02/14 04:48:24;;;;;;;;;;;;;;;3.60;88.87;101114.23;107547;1254;99204;-66
2024/02/14 04:50:53;;;;;;;;;;;;;;;3.59;88.93;101115.91;107617;1251;113084;-65
2024/02/14 04:53:21;;;;;;;;;;;;;;;3.58;88.92;101116.34;107538;1251;107625;-64
2024/02/14 04:55:49;;;;;;;;;;;;;;;3.53;88.77;101122.95;107539;1251;108077;-66
2024/02/14 04:58:18;;;;;;;;;;;;;;;3.51;89.13;101122.89;107493;1254;99208;-65
2024/02/14 05:00:46;;;;;;;;;;;;;;;3.49;89.21;101122.46;107551;1253;99169;-66
2024/02/14 05:03:15;;;;;;;;;;;;;;;3.51;89.12;101125.88;107593;1253;113134;-65
2024/02/14 05:05:44;;;;;;;;;;;;;;;3.53;89.22;101134.30;107606;1251;108964;-65
2024/02/14 05:08:12;;;;;;;;;;;;;;;3.52;89.27;101132.79;107453;1254;108675;-64
2024/02/14 05:10:40;;;;;;;;;;;;;;;3.53;89.21;101138.59;107495;1251;99196;-68
2024/02/14 05:13:08;;;;;;;;;;;;;;;3.54;89.25;101134.46;107484;1250;99070;-63
2024/02/14 05:15:37;;;;;;;;;;;;;;;3.58;89.28;101138.49;107523;1250;113113;-64
2024/02/14 05:18:06;;;;;;;;;;;;;;;3.60;89.26;101142.11;107506;1250;108773;-67
2024/02/14 05:20:35;;;;;;;;;;;;;;;3.60;89.09;101144.21;107475;1251;106940;-66
2024/02/14 05:23:04;;;;;;;;;;;;;;;3.63;89.39;101146.35;107526;1251;99200;-66
2024/02/14 05:25:32;;;;;;;;;;;;;;;3.64;89.23;101155.01;107496;1253;99216;-66
2024/02/14 05:28:01;;;;;;;;;;;;;;;3.63;89.33;101154.73;107512;1251;112936;-65
2024/02/14 05:30:29;;;;;;;;;;;;;;;3.62;89.24;101162.05;107495;1251;108329;-64
2024/02/14 05:32:57;;;;;;;;;;;;;;;3.59;88.81;101169.30;107428;1251;107337;-63
2024/02/14 05:35:26;;;;;;;;;;;;;;;3.55;88.45;101173.39;107460;1254;99314;-65
2024/02/14 05:37:54;;;;;;;;;;;;;;;3.57;88.78;101174.90;107497;1250;99170;-64
2024/02/14 05:40:25;;;;;;;;;;;;;;;3.54;88.99;101186.73;107511;1251;113114;-64
2024/02/14 05:42:55;;;;;;;;;;;;;;;3.56;89.05;101185.58;107568;1251;107442;-65
2024/02/14 05:45:24;;;;;;;;;;;;;;;3.60;88.92;101187.48;107474;1251;108632;-64
2024/02/14 05:47:52;;;;;;;;;;;;;;;3.63;89.05;101190.35;107620;1251;99176;-66
2024/02/14 05:50:20;;;;;;;;;;;;;;;3.65;88.82;101194.67;107460;1254;99172;-64
2024/02/14 05:52:48;;;;;;;;;;;;;;;3.65;88.58;101198.42;107433;1251;112233;-63
2024/02/14 05:55:16;;;;;;;;;;;;;;;3.66;88.64;101202.64;107510;1254;108396;-66
2024/02/14 05:57:44;;;;;;;;;;;;;;;3.67;88.66;101200.81;107562;1251;107609;-67
2024/02/14 06:00:13;;;;;;;;;;;;;;;3.66;88.53;101208.98;107638;1253;99177;-65
2024/02/14 06:02:41;;;;;;;;;;;;;;;3.68;88.68;101208.17;107590;1250;99173;-64
2024/02/14 06:05:10;;;;;;;;;;;;;;;3.68;88.40;101216.33;107565;1252;112809;-65
2024/02/14 06:07:40;;;;;;;;;;;;;;;3.69;88.58;101218.42;107622;1250;107659;-64
2024/02/14 06:10:08;;;;;;;;;;;;;;;3.72;88.70;101217.93;107474;1253;107074;-64
2024/02/14 06:12:37;;;;;;;;;;;;;;;3.71;88.25;101222.22;107543;1251;99293;-63
2024/02/14 06:15:05;;;;;;;;;;;;;;;3.76;88.54;101224.81;107600;1254;99186;-65
2024/02/14 06:17:34;;;;;;;;;;;;;;;3.82;88.52;101231.80;107652;1255;113268;-64
2024/02/14 06:20:05;;;;;;;;;;;;;;;3.85;88.36;101233.90;107618;1254;109524;-65
2024/02/14 06:22:34;;;;;;;;;;;;;;;3.86;88.49;101237.39;107642;1254;108263;-64
2024/02/14 06:25:16;;;;;;;;;;;;;;;3.87;88.03;101245.35;107579;1255;99275;-65
2024/02/14 06:27:44;;;;;;;;;;;;;;;3.88;88.08;101245.30;107625;1254;99169;-64
2024/02/14 06:30:13;;;;;;;;;;;;;;;3.86;87.73;101244.49;107640;1253;113501;-65
2024/02/14 06:32:41;;;;;;;;;;;;;;;3.87;87.92;101248.91;107602;1254;108329;-64
2024/02/14 06:35:10;;;;;;;;;;;;;;;3.89;87.91;101247.73;107531;1251;108296;-67
2024/02/14 06:37:39;;;;;;;;;;;;;;;3.93;87.93;101253.02;107503;1250;99169;-64
2024/02/14 06:40:20;;;;;;;;;;;;;;;3.98;88.02;101259.84;107491;1251;99381;-65
2024/02/14 06:42:50;;;;;;;;;;;;;;;4.02;87.96;101262.63;107534;1251;113522;-64
2024/02/14 06:45:18;;;;;;;;;;;;;;;4.03;87.53;101266.48;107521;1251;111159;-66
2024/02/14 06:47:47;;;;;;;;;;;;;;;4.02;87.28;101268.70;107619;1251;108146;-64
2024/02/14 06:50:15;;;;;;;;;;;;;;;4.02;87.33;101277.93;107412;1251;99194;-67
2024/02/14 06:52:44;;;;;;;;;;;;;;;4.03;87.20;101277.33;107436;1251;99227;-65
2024/02/14 06:55:12;;;;;;;;;;;;;;;4.04;87.09;101276.20;107368;1251;111239;-65
2024/02/14 06:57:40;;;;;;;;;;;;;;;4.07;87.12;101286.36;107458;1254;109032;-65
2024/02/14 07:00:09;;;;;;;;;;;;;;;4.11;87.06;101286.16;107540;1251;108763;-66
2024/02/14 07:02:37;;;;;;;;;;;;;;;4.10;86.68;101290.63;107604;1251;99172;-66
2024/02/14 07:05:07;;;;;;;;;;;;;;;4.09;86.46;101295.29;107550;1250;99191;-66
2024/02/14 07:07:36;;;;;;;;;;;;;;;4.03;85.99;101300.38;107502;1253;113271;-66
2024/02/14 07:10:06;;;;;;;;;;;;;;;4.04;86.44;101300.86;107567;1254;107683;-66
2024/02/14 07:12:36;;;;;;;;;;;;;;;4.04;86.19;101304.95;107527;1253;108282;-63
2024/02/14 07:15:06;;;;;;;;;;;;;;;4.07;86.41;101307.46;107400;1252;99093;-69
2024/02/14 07:17:34;;;;;;;;;;;;;;;4.12;86.76;101311.52;107509;1250;99166;-65
2024/02/14 07:20:03;;;;;;;;;;;;;;;4.14;86.39;101316.17;107382;1251;113052;-65
2024/02/14 07:22:31;;;;;;;;;;;;;;;4.20;86.44;101314.61;107503;1251;108765;-66
2024/02/14 07:25:00;;;;;;;;;;;;;;;4.25;86.29;101316.12;107360;1250;107733;-66
2024/02/14 07:27:28;;;;;;;;;;;;;;;4.28;86.14;101319.88;107398;1251;99204;-67
2024/02/14 07:29:56;;;;;;;;;;;;;;;4.26;85.89;101323.33;107455;1254;99374;-65
2024/02/14 07:32:26;;;;;;;;;;;;;;;4.29;86.13;101325.48;107435;1254;113486;-66
2024/02/14 07:34:54;;;;;;;;;;;;;;;4.31;86.11;101329.81;107499;1251;108826;-66
2024/02/14 07:37:22;;;;;;;;;;;;;;;4.30;85.72;101334.14;107497;1254;108801;-66
2024/02/14 07:39:51;;;;;;;;;;;;;;;4.31;85.89;101333.92;107432;1253;99178;-66
2024/02/14 07:42:19;;;;;;;;;;;;;;;4.27;85.12;101340.49;107534;1253;99260;-64
2024/02/14 07:44:47;;;;;;;;;;;;;;;4.21;85.05;101337.98;107393;1254;112471;-64
2024/02/14 07:47:16;;;;;;;;;;;;;;;4.18;85.01;101338.88;107357;1251;108472;-64
2024/02/14 07:49:44;;;;;;;;;;;;;;;4.17;85.16;101341.97;107379;1254;107773;-64
2024/02/14 07:52:12;;;;;;;;;;;;;;;4.19;85.28;101345.92;107376;1251;99086;-66
2024/02/14 07:54:43;;;;;;;;;;;;;;;4.21;85.12;101344.19;107377;1251;99098;-67
2024/02/14 07:57:11;;;;;;;;;;;;;;;4.24;85.04;101351.48;107318;1251;112726;-65
2024/02/14 07:59:40;;;;;;;;;;;;;;;4.24;84.97;101354.33;107422;1251;108927;-66
2024/02/14 08:02:08;;;;;;;;;;;;;;;4.23;84.77;101360.97;107455;1254;108400;-66
2024/02/14 08:04:36;;;;;;;;;;;;;;;4.19;84.73;101360.99;107531;1254;99173;-65
2024/02/14 08:07:05;;;;;;;;;;;;;;;4.14;84.21;101373.89;107616;1251;99185;-64
2024/02/14 08:09:33;;;;;;;;;;;;;;;4.08;84.16;101374.90;107610;1250;113839;-65
2024/02/14 08:12:02;;;;;;;;;;;;;;;4.09;84.32;101368.61;107456;1250;108298;-65
2024/02/14 08:14:30;;;;;;;;;;;;;;;4.12;84.35;101382.30;107486;1252;106920;-66
2024/02/14 08:16:59;;;;;;;;;;;;;;;4.09;83.95;101378.19;107549;1253;99281;-64
2024/02/14 08:19:27;;;;;;;;;;;;;;;4.13;83.74;101387.59;107565;1251;99089;-65
2024/02/14 08:21:58;;;;;;;;;;;;;;;4.12;83.27;101393.89;107567;1251;113376;-66
2024/02/14 08:24:27;;;;;;;;;;;;;;;4.16;83.34;101396.34;107579;1254;107335;-66
2024/02/14 08:26:55;;;;;;;;;;;;;;;4.19;83.19;101403.61;107598;1251;108040;-64
2024/02/14 08:29:23;;;;;;;;;;;;;;;4.20;82.76;101404.64;107639;1250;99869;-63
2024/02/14 08:31:53;;;;;;;;;;;;;;;4.23;82.88;101411.23;107526;1253;99252;-66
2024/02/14 08:34:21;;;;;;;;;;;;;;;4.25;83.01;101412.71;107537;1250;113164;-64
2024/02/14 08:36:49;;;;;;;;;;;;;;;4.28;83.07;101411.52;107570;1251;108826;-63
2024/02/14 08:39:17;;;;;;;;;;;;;;;4.30;82.90;101410.52;107492;1251;107902;-63
2024/02/14 08:41:46;;;;;;;;;;;;;;;4.30;82.97;101414.77;107540;1251;99227;-65
2024/02/14 08:44:15;;;;;;;;;;;;;;;4.35;82.88;101415.56;107532;1251;99150;-64
2024/02/14 08:46:44;;;;;;;;;;;;;;;4.43;83.01;101417.48;107054;1251;689921;-65
2024/02/14 08:49:13;;;;;;;;;;;;;;;4.47;82.51;101423.50;107568;1255;107878;-65
2024/02/14 08:51:43;;;;;;;;;;;;;;;4.48;82.45;101424.84;107536;1251;108142;-64
2024/02/14 08:54:12;;;;;;;;;;;;;;;4.52;82.42;101424.80;107496;1254;99169;-65
2024/02/14 08:56:40;;;;;;;;;;;;;;;4.59;82.39;101427.48;107528;1251;99179;-64
2024/02/14 08:59:10;;;;;;;;;;;;;;;4.66;82.26;101424.27;107572;1251;113092;-66
2024/02/14 09:01:39;;;;;;;;;;;;;;;4.72;82.12;101425.89;107543;1250;108194;-67
2024/02/14 09:04:07;;;;;;;;;;;;;;;4.72;81.44;101428.39;107603;1251;107801;-65
2024/02/14 09:06:37;;;;;;;;;;;;;;;4.76;81.40;101431.71;107597;1251;99254;-65
2024/02/14 09:09:05;;;;;;;;;;;;;;;4.81;81.32;101434.27;107543;1253;99067;-64
2024/02/14 09:11:34;;;;;;;;;;;;;;;4.88;81.26;101437.30;107495;1251;113294;-64
2024/02/14 09:14:06;;;;;;;;;;;;;;;4.93;81.08;101439.89;107507;1251;108455;-65
2024/02/14 09:16:34;;;;;;;;;;;;;;;4.96;80.57;101442.18;107559;1251;107786;-64
2024/02/14 09:19:05;;;;;;;;;;;;;;;4.97;80.05;101447.14;107508;1251;99175;-64
2024/02/14 09:21:37;;;;;;;;;;;;;;;5.00;80.51;101446.63;107557;1250;99346;-63
2024/02/14 09:24:06;;;;;;;;;;;;;;;5.05;80.31;101449.23;107549;1251;112993;-65
2024/02/14 09:26:35;;;;;;;;;;;;;;;5.10;80.39;101447.14;107537;1251;108984;-65
2024/02/14 09:29:03;;;;;;;;;;;;;;;5.09;79.71;101451.84;107449;1254;108158;-64
2024/02/14 09:31:31;;;;;;;;;;;;;;;5.09;79.93;101451.27;107474;1251;99192;-64
2024/02/14 09:34:00;;;;;;;;;;;;;;;5.10;79.58;101454.80;107456;1251;99185;-65
2024/02/14 09:36:29;;;;;;;;;;;;;;;5.06;79.66;101458.36;107559;1251;112408;-64
2024/02/14 09:38:57;;;;;;;;;;;;;;;4.99;78.77;101459.83;107572;1250;107828;-63
2024/02/14 09:41:33;;;;;;;;;;;;;;;4.92;78.53;101457.39;107610;1251;108383;-64
2024/02/14 09:44:03;;;;;;;;;;;;;;;4.93;78.45;101460.17;107535;1250;99188;-64
2024/02/14 09:46:31;;;;;;;;;;;;;;;4.95;77.49;101460.23;107544;1251;99169;-67
2024/02/14 09:49:00;;;;;;;;;;;;;;;4.94;77.29;101463.80;107610;1251;113660;-66
2024/02/14 09:51:29;;;;;;;;;;;;;;;4.96;77.45;101467.27;107631;1250;107703;-64
2024/02/14 09:53:59;;;;;;;;;;;;;;;4.97;77.76;101463.83;107563;1251;108574;-64
2024/02/14 09:56:30;;;;;;;;;;;;;;;5.01;77.64;101464.52;107573;1250;99190;-63
2024/02/14 09:59:02;;;;;;;;;;;;;;;4.97;76.92;101465.29;107502;1251;99089;-64
2024/02/14 10:01:31;;;;;;;;;;;;;;;4.91;76.52;101468.09;107525;1251;112379;-64
2024/02/14 10:03:59;;;;;;;;;;;;;;;4.84;76.31;101472.68;107512;1251;109093;-65
2024/02/14 10:06:27;;;;;;;;;;;;;;;4.84;76.84;101470.76;107459;1251;107583;-66
2024/02/14 10:08:57;;;;;;;;;;;;;;;4.85;76.91;101466.60;107467;1250;99319;-64
2024/02/14 10:11:32;;;;;;;;;;;;;;;4.86;76.97;101464.07;107549;1251;99181;-66
2024/02/14 10:14:03;;;;;;;;;;;;;;;4.90;77.11;101463.14;107551;1251;113221;-65
2024/02/14 10:16:35;;;;;;;;;;;;;;;4.86;76.37;101462.66;107502;1251;108412;-65
2024/02/14 10:19:03;;;;;;;;;;;;;;;4.84;76.77;101463.10;107565;1253;108628;-65
2024/02/14 10:21:33;;;;;;;;;;;;;;;4.82;76.89;101464.81;107524;1251;99095;-64
2024/02/14 10:24:02;;;;;;;;;;;;;;;4.84;76.57;101468.95;107597;1254;99172;-65
2024/02/14 10:26:30;;;;;;;;;;;;;;;4.80;76.52;101466.69;107567;1251;112374;-64
2024/02/14 10:28:59;;;;;;;;;;;;;;;4.81;76.55;101466.82;107607;1251;107751;-65
2024/02/14 10:31:27;;;;;;;;;;;;;;;4.81;76.60;101462.90;107558;1251;108341;-64
2024/02/14 10:33:56;;;;;;;;;;;;;;;4.84;76.59;101461.67;107561;1250;99306;-64
2024/02/14 10:36:25;;;;;;;;;;;;;;;4.82;75.65;101465.87;107499;1254;99188;-63
2024/02/14 10:38:57;;;;;;;;;;;;;;;4.78;75.71;101465.92;107593;1250;112707;-65
2024/02/14 10:41:26;;;;;;;;;;;;;;;4.79;76.03;101461.27;107630;1253;108821;-64
2024/02/14 10:43:54;;;;;;;;;;;;;;;4.83;76.37;101461.52;107595;1251;107715;-65
2024/02/14 10:46:25;;;;;;;;;;;;;;;4.81;75.98;101464.85;107494;1251;99174;-65
2024/02/14 10:48:54;;;;;;;;;;;;;;;4.80;76.28;101462.95;107560;1251;99442;-66
2024/02/14 10:51:25;;;;;;;;;;;;;;;4.85;76.67;101460.73;107622;1251;113258;-65
2024/02/14 10:53:55;;;;;;;;;;;;;;;4.84;76.15;101467.58;107551;1251;107758;-64
2024/02/14 10:56:27;;;;;;;;;;;;;;;4.84;76.41;101468.23;107634;1251;107515;-63
2024/02/14 10:58:59;;;;;;;;;;;;;;;4.78;75.95;101475.01;107544;1251;99251;-65
2024/02/14 11:01:30;;;;;;;;;;;;;;;4.69;75.78;101473.31;107499;1251;99185;-66
2024/02/14 11:04:00;;;;;;;;;;;;;;;4.62;76.00;101474.73;107531;1251;112620;-63
2024/02/14 11:06:29;;;;;;;;;;;;;;;4.59;75.87;101472.39;107647;1251;108796;-65
2024/02/14 11:09:01;;;;;;;;;;;;;;;4.65;76.44;101471.56;107532;1251;108181;-64
2024/02/14 11:11:30;;;;;;;;;;;;;;;4.73;76.80;101465.14;107519;1251;99330;-64
2024/02/14 11:13:59;;;;;;;;;;;;;;;4.78;76.71;101469.28;107554;1251;99218;-65
2024/02/14 11:16:28;;;;;;;;;;;;;;;4.78;75.75;101466.80;107648;1254;113195;-68
2024/02/14 11:19:10;;;;;;;;;;;;;;;4.80;75.55;101463.49;107608;1251;107703;-68
2024/02/14 11:21:43;;;;;;;;;;;;;;;4.81;75.64;101467.20;107489;1251;108394;-69
2024/02/14 11:24:17;;;;;;;;;;;;;;;4.79;75.26;101465.16;107525;1251;99831;-66
2024/02/14 11:26:47;;;;;;;;;;;;;;;4.83;75.42;101465.09;107515;1251;99272;-67
2024/02/14 11:29:18;;;;;;;;;;;;;;;4.88;75.38;101467.52;107515;1251;112353;-65
2024/02/14 11:31:58;;;;;;;;;;;;;;;4.91;74.98;101466.64;107558;1254;108467;-65
2024/02/14 11:34:27;;;;;;;;;;;;;;;4.92;74.77;101470.66;107598;1251;106754;-65
2024/02/14 11:36:55;;;;;;;;;;;;;;;4.92;73.95;101465.55;107557;1254;99606;-64
2024/02/14 11:39:24;;;;;;;;;;;;;;;4.88;73.70;101469.84;107526;1255;99179;-65
2024/02/14 11:41:52;;;;;;;;;;;;;;;4.83;73.64;101477.20;107543;1253;114920;-64
2024/02/14 11:44:25;;;;;;;;;;;;;;;4.83;74.11;101479.70;107589;1250;108456;-64
2024/02/14 11:46:54;;;;;;;;;;;;;;;4.88;74.40;101479.42;107555;1251;107710;-65
2024/02/14 11:49:22;;;;;;;;;;;;;;;4.93;74.31;101477.06;107586;1251;99258;-64
2024/02/14 11:51:51;;;;;;;;;;;;;;;4.94;74.31;101485.85;107604;1250;99179;-65
2024/02/14 11:54:20;;;;;;;;;;;;;;;4.96;74.13;101485.06;107565;1253;113048;-66
2024/02/14 11:56:49;;;;;;;;;;;;;;;4.98;74.17;101491.33;107596;1251;108459;-64
2024/02/14 11:59:19;;;;;;;;;;;;;;;5.01;74.13;101492.98;107520;1250;108313;-66
2024/02/14 12:01:51;;;;;;;;;;;;;;;5.04;73.98;101493.17;107568;1251;99197;-65
2024/02/14 12:04:19;;;;;;;;;;;;;;;4.98;73.57;101494.55;107591;1251;99204;-65
2024/02/14 12:06:47;;;;;;;;;;;;;;;4.90;73.27;101500.66;107630;1251;111734;-64
2024/02/14 12:09:16;;;;;;;;;;;;;;;4.87;73.56;101501.70;107558;1251;108399;-65
2024/02/14 12:11:46;;;;;;;;;;;;;;;4.88;73.62;101500.79;107677;1254;108080;-65
2024/02/14 12:14:15;;;;;;;;;;;;;;;4.89;73.43;101498.73;107512;1254;99268;-64
2024/02/14 12:16:43;;;;;;;;;;;;;;;4.91;73.48;101501.86;107550;1251;99140;-64
2024/02/14 12:19:15;;;;;;;;;;;;;;;4.96;73.47;101499.98;107607;1254;113365;-65
2024/02/14 12:21:45;;;;;;;;;;;;;;;5.00;73.57;101504.52;107534;1250;108448;-65
2024/02/14 12:24:14;;;;;;;;;;;;;;;5.04;73.72;101508.63;107543;1251;108172;-64
2024/02/14 12:26:43;;;;;;;;;;;;;;;5.07;73.30;101504.00;107633;1251;99179;-64
2024/02/14 12:29:13;;;;;;;;;;;;;;;5.06;72.92;101505.33;107585;1251;99087;-63
2024/02/14 12:31:43;;;;;;;;;;;;;;;5.07;73.07;101503.30;107637;1254;113410;-65
2024/02/14 12:34:12;;;;;;;;;;;;;;;5.07;73.09;101501.34;107600;1254;107750;-68
2024/02/14 12:36:41;;;;;;;;;;;;;;;5.04;72.40;101506.85;107558;1251;108226;-67
2024/02/14 12:39:12;;;;;;;;;;;;;;;5.05;72.66;101504.13;107532;1251;99245;-64